Time;durP1;ratioP1;P1;durP2;ratioP2;P2;SDS_P1;SDS_P2;PMS_P1;PMS_P2;Temp;Humidity;BMP_temperature;BMP_pressure;BME280_temperature;BME280_humidity;BME280_pressure;Samples;Min_cycle;Max_cycle;Signal;HPM_P1;HPM_P2
2021/08/03 00:01:08;;;;;;;21.95;9.65;;;;;;;;;;5096540;28;20042;-76
2021/08/03 00:03:35;;;;;;;27.02;11.23;;;;;;;;;;5095983;28;20549;-76
2021/08/03 00:06:03;;;;;;;38.00;12.55;;;;;;;;;;5096464;28;20032;-76
2021/08/03 00:08:32;;;;;;;31.30;12.43;;;;;;;;;;5096326;28;20374;-76
2021/08/03 00:11:01;;;;;;;31.63;11.32;;;;;;;;;;5096244;28;20034;-77
2021/08/03 00:13:28;;;;;;;30.50;11.85;;;;;;;;;;5096215;28;20032;-76
2021/08/03 00:15:56;;;;;;;28.15;10.55;;;;;;;;;;5096245;28;20051;-76
2021/08/03 00:18:22;;;;;;;33.83;11.35;;;;;;;;;;5096121;28;20020;-74
2021/08/03 00:20:47;;;;;;;27.35;10.95;;;;;;;;;;5095932;28;20060;-76
2021/08/03 00:23:14;;;;;;;31.98;11.95;;;;;;;;;;5095843;28;20035;-76
2021/08/03 00:25:41;;;;;;;39.15;14.25;;;;;;;;;;5094634;28;20055;-76
2021/08/03 00:28:06;;;;;;;39.70;12.27;;;;;;;;;;5095852;28;20028;-76
2021/08/03 00:30:32;;;;;;;36.20;12.45;;;;;;;;;;5095831;28;20039;-76
2021/08/03 00:32:57;;;;;;;53.90;13.10;;;;;;;;;;5095520;28;20111;-77
2021/08/03 00:35:23;;;;;;;61.28;13.63;;;;;;;;;;5095767;28;20024;-76
2021/08/03 00:37:49;;;;;;;60.65;13.68;;;;;;;;;;5095698;28;20119;-77
2021/08/03 00:40:15;;;;;;;32.15;11.88;;;;;;;;;;5095754;28;20067;-74
2021/08/03 00:42:41;;;;;;;51.13;13.48;;;;;;;;;;5094267;28;20402;-77
2021/08/03 00:45:06;;;;;;;39.85;13.30;;;;;;;;;;5095627;28;20043;-76
2021/08/03 00:47:32;;;;;;;41.35;13.32;;;;;;;;;;5095547;28;20020;-76
2021/08/03 00:49:58;;;;;;;32.63;11.52;;;;;;;;;;5095507;28;20127;-76
2021/08/03 00:52:23;;;;;;;46.15;12.88;;;;;;;;;;5095427;28;20501;-76
2021/08/03 00:54:48;;;;;;;30.33;11.50;;;;;;;;;;5095511;28;20095;-75
2021/08/03 00:57:14;;;;;;;30.55;12.35;;;;;;;;;;5095364;28;20028;-76
2021/08/03 00:59:39;;;;;;;36.75;12.70;;;;;;;;;;5095292;28;20028;-77
2021/08/03 01:02:05;;;;;;;38.75;12.93;;;;;;;;;;5095268;28;20020;-76
2021/08/03 01:04:31;;;;;;;25.10;10.52;;;;;;;;;;5095107;28;20097;-76
2021/08/03 01:06:59;;;;;;;28.15;10.95;;;;;;;;;;5095022;28;20466;-76
2021/08/03 01:09:28;;;;;;;24.73;10.52;;;;;;;;;;5094740;28;20476;-76
2021/08/03 01:12:01;;;;;;;29.58;11.57;;;;;;;;;;5095074;28;20032;-76
2021/08/03 01:14:33;;;;;;;28.00;11.45;;;;;;;;;;5094225;28;20036;-76
2021/08/03 01:17:01;;;;;;;33.08;11.68;;;;;;;;;;5094932;28;20107;-78
2021/08/03 01:19:30;;;;;;;26.48;11.15;;;;;;;;;;5094868;28;20043;-76
2021/08/03 01:22:16;;;;;;;29.10;11.43;;;;;;;;;;5094432;28;20044;-76
2021/08/03 01:25:00;;;;;;;42.17;13.00;;;;;;;;;;5094912;28;20036;-76
2021/08/03 01:27:32;;;;;;;37.80;12.90;;;;;;;;;;5094680;28;20032;-76
2021/08/03 01:29:57;;;;;;;36.22;13.50;;;;;;;;;;5094396;28;20353;-76
2021/08/03 01:32:25;;;;;;;31.02;12.85;;;;;;;;;;5094339;28;20051;-76
2021/08/03 01:34:51;;;;;;;33.30;13.00;;;;;;;;;;5094632;28;20020;-76
2021/08/03 01:37:17;;;;;;;40.67;13.60;;;;;;;;;;5093098;28;20373;-76
2021/08/03 01:39:44;;;;;;;34.70;12.45;;;;;;;;;;5094563;28;20032;-76
2021/08/03 01:42:10;;;;;;;29.23;11.57;;;;;;;;;;5094536;28;20414;-76
2021/08/03 01:44:36;;;;;;;32.90;12.57;;;;;;;;;;5094380;28;20043;-77
2021/08/03 01:47:03;;;;;;;27.02;11.57;;;;;;;;;;5094441;28;20032;-77
2021/08/03 01:49:30;;;;;;;39.17;13.52;;;;;;;;;;5094351;28;20031;-76
2021/08/03 01:51:56;;;;;;;41.85;12.95;;;;;;;;;;5094352;28;20028;-76
2021/08/03 01:54:23;;;;;;;23.05;11.40;;;;;;;;;;5094010;28;20158;-76
2021/08/03 01:56:49;;;;;;;29.77;12.05;;;;;;;;;;5094339;28;20028;-76
2021/08/03 01:59:15;;;;;;;30.40;10.98;;;;;;;;;;5093623;28;20051;-76
2021/08/03 02:01:41;;;;;;;33.38;12.75;;;;;;;;;;5094075;28;20125;-76
2021/08/03 02:04:06;;;;;;;27.65;11.82;;;;;;;;;;5094050;28;20124;-76
2021/08/03 02:06:32;;;;;;;25.13;12.30;;;;;;;;;;5093812;28;20028;-76
2021/08/03 02:08:58;;;;;;;21.88;10.32;;;;;;;;;;5092804;28;20036;-76
2021/08/03 02:11:24;;;;;;;39.42;12.68;;;;;;;;;;5093985;28;20031;-76
2021/08/03 02:13:50;;;;;;;28.70;11.18;;;;;;;;;;5094051;28;20072;-76
2021/08/03 02:16:15;;;;;;;30.63;11.52;;;;;;;;;;5093512;28;20035;-76
2021/08/03 02:18:45;;;;;;;31.60;12.02;;;;;;;;;;5094003;28;20047;-76
2021/08/03 02:21:11;;;;;;;34.22;12.38;;;;;;;;;;5093774;28;20044;-76
2021/08/03 02:23:36;;;;;;;27.55;11.20;;;;;;;;;;5093841;28;20039;-76
2021/08/03 02:26:01;;;;;;;27.40;10.43;;;;;;;;;;5093688;28;20460;-76
2021/08/03 02:28:26;;;;;;;25.88;10.85;;;;;;;;;;5093695;28;20066;-76
2021/08/03 02:30:54;;;;;;;23.92;10.23;;;;;;;;;;5093738;28;20405;-76
2021/08/03 02:33:25;;;;;;;25.63;10.63;;;;;;;;;;5093645;28;20027;-76
2021/08/03 02:35:55;;;;;;;23.67;10.18;;;;;;;;;;5093614;28;20103;-76
2021/08/03 02:38:22;;;;;;;22.38;9.57;;;;;;;;;;5093619;28;20032;-76
2021/08/03 02:40:48;;;;;;;34.95;12.48;;;;;;;;;;5093501;28;20024;-76
2021/08/03 02:43:14;;;;;;;23.00;9.40;;;;;;;;;;5093453;28;20126;-76
2021/08/03 02:45:40;;;;;;;30.52;12.15;;;;;;;;;;5093608;28;20036;-76
2021/08/03 02:48:14;;;;;;;29.27;11.20;;;;;;;;;;5093091;28;20020;-76
2021/08/03 02:50:41;;;;;;;24.70;10.98;;;;;;;;;;5093533;28;20028;-76
2021/08/03 02:53:10;;;;;;;20.58;9.55;;;;;;;;;;5093564;28;20077;-77
2021/08/03 02:55:39;;;;;;;38.13;11.40;;;;;;;;;;5093398;28;20024;-76
2021/08/03 02:58:07;;;;;;;20.33;9.73;;;;;;;;;;5093455;28;20412;-76
2021/08/03 03:00:35;;;;;;;30.83;11.65;;;;;;;;;;5093311;28;20032;-76
2021/08/03 03:03:04;;;;;;;32.33;11.35;;;;;;;;;;5093327;28;20079;-76
2021/08/03 03:05:31;;;;;;;31.02;11.55;;;;;;;;;;5093422;28;20016;-76
2021/08/03 03:08:01;;;;;;;31.45;12.30;;;;;;;;;;5093457;28;20032;-76
2021/08/03 03:10:27;;;;;;;31.90;11.82;;;;;;;;;;5093213;28;20024;-76
2021/08/03 03:12:56;;;;;;;29.63;11.77;;;;;;;;;;5092831;28;20036;-76
2021/08/03 03:15:22;;;;;;;28.92;10.35;;;;;;;;;;5092759;28;20476;-76
2021/08/03 03:17:47;;;;;;;30.23;11.23;;;;;;;;;;5093235;28;20035;-76
2021/08/03 03:20:13;;;;;;;32.92;11.95;;;;;;;;;;5092988;28;20051;-77
2021/08/03 03:22:41;;;;;;;33.72;12.00;;;;;;;;;;5093114;28;20389;-77
2021/08/03 03:25:08;;;;;;;27.75;11.77;;;;;;;;;;5093052;28;20085;-76
2021/08/03 03:27:34;;;;;;;31.52;11.82;;;;;;;;;;5093059;28;20349;-76
2021/08/03 03:29:59;;;;;;;29.80;10.90;;;;;;;;;;5092859;28;20028;-76
2021/08/03 03:32:27;;;;;;;36.45;12.15;;;;;;;;;;5093072;28;20360;-76
2021/08/03 03:34:54;;;;;;;30.25;11.05;;;;;;;;;;5093172;28;20341;-77
2021/08/03 03:37:19;;;;;;;29.02;10.75;;;;;;;;;;5092964;28;20146;-76
2021/08/03 03:39:45;;;;;;;26.95;10.35;;;;;;;;;;5093075;28;20462;-76
2021/08/03 03:42:11;;;;;;;26.70;9.88;;;;;;;;;;5093108;28;20016;-76
2021/08/03 03:44:36;;;;;;;23.83;9.65;;;;;;;;;;5092620;28;20036;-76
2021/08/03 03:47:05;;;;;;;23.35;8.65;;;;;;;;;;5093119;28;20031;-76
2021/08/03 03:49:33;;;;;;;26.08;9.98;;;;;;;;;;5092890;28;20016;-77
2021/08/03 03:52:01;;;;;;;23.40;9.45;;;;;;;;;;5092901;28;20032;-76
2021/08/03 03:54:28;;;;;;;27.00;10.38;;;;;;;;;;5092895;28;20032;-76
2021/08/03 03:56:55;;;;;;;29.05;10.40;;;;;;;;;;5093060;28;20027;-76
2021/08/03 03:59:21;;;;;;;29.92;10.95;;;;;;;;;;5092832;28;20032;-75
2021/08/03 04:01:48;;;;;;;29.15;9.85;;;;;;;;;;5095225;28;20031;-75
2021/08/03 04:04:14;;;;;;;27.48;9.85;;;;;;;;;;5096276;28;20063;-75
2021/08/03 04:06:40;;;;;;;28.30;10.30;;;;;;;;;;5096447;28;20036;-76
2021/08/03 04:09:15;;;;;;;28.02;11.05;;;;;;;;;;5096288;28;20024;-75
2021/08/03 04:11:47;;;;;;;35.28;11.45;;;;;;;;;;5096114;28;20456;-75
2021/08/03 04:14:16;;;;;;;34.63;11.27;;;;;;;;;;5096072;28;20028;-75
2021/08/03 04:16:42;;;;;;;22.05;9.75;;;;;;;;;;5095876;28;20099;-75
2021/08/03 04:19:07;;;;;;;33.03;11.30;;;;;;;;;;5096088;28;20063;-75
2021/08/03 04:21:32;;;;;;;27.30;10.00;;;;;;;;;;5096014;28;20040;-75
2021/08/03 04:23:57;;;;;;;27.83;10.63;;;;;;;;;;5096052;28;20032;-75
2021/08/03 04:26:23;;;;;;;29.27;12.07;;;;;;;;;;5095877;28;20032;-75
2021/08/03 04:28:48;;;;;;;34.65;11.07;;;;;;;;;;5095950;28;20032;-75
2021/08/03 04:31:13;;;;;;;27.63;10.00;;;;;;;;;;5095795;28;20115;-75
2021/08/03 04:33:39;;;;;;;43.58;12.00;;;;;;;;;;5095887;28;20032;-75
2021/08/03 04:36:04;;;;;;;31.80;11.30;;;;;;;;;;5095728;28;20427;-77
2021/08/03 04:38:29;;;;;;;33.80;11.57;;;;;;;;;;5095753;28;20024;-75
2021/08/03 04:40:54;;;;;;;35.85;11.98;;;;;;;;;;5095736;28;20537;-75
2021/08/03 04:43:20;;;;;;;31.60;11.52;;;;;;;;;;5095583;28;20140;-75
2021/08/03 04:45:45;;;;;;;37.33;11.43;;;;;;;;;;5095599;28;20149;-75
2021/08/03 04:48:12;;;;;;;39.55;12.10;;;;;;;;;;5095300;28;20461;-76
2021/08/03 04:50:37;;;;;;;37.33;12.32;;;;;;;;;;5095033;28;20124;-76
2021/08/03 04:53:02;;;;;;;55.67;14.50;;;;;;;;;;5095347;28;20541;-75
2021/08/03 04:55:27;;;;;;;32.78;11.25;;;;;;;;;;5095293;28;20040;-76
2021/08/03 04:57:53;;;;;;;33.47;11.90;;;;;;;;;;5095441;28;20077;-75
2021/08/03 05:00:18;;;;;;;66.00;14.85;;;;;;;;;;5095325;28;20342;-76
2021/08/03 05:02:44;;;;;;;54.22;14.00;;;;;;;;;;5095550;28;20047;-75
2021/08/03 05:05:09;;;;;;;42.35;12.45;;;;;;;;;;5095223;28;20107;-75
2021/08/03 05:07:35;;;;;;;47.83;14.43;;;;;;;;;;5095160;28;20352;-74
2021/08/03 05:10:01;;;;;;;47.88;14.60;;;;;;;;;;5093937;28;20077;-76
2021/08/03 05:12:26;;;;;;;42.65;13.10;;;;;;;;;;5094538;28;20073;-76
2021/08/03 05:14:58;;;;;;;40.70;13.38;;;;;;;;;;5095160;28;20024;-75
2021/08/03 05:17:23;;;;;;;54.60;12.93;;;;;;;;;;5095022;28;20108;-75
2021/08/03 05:19:50;;;;;;;42.03;13.18;;;;;;;;;;5095055;28;20060;-76
2021/08/03 05:22:15;;;;;;;52.70;13.13;;;;;;;;;;5094807;28;20032;-75
2021/08/03 05:24:41;;;;;;;34.97;11.52;;;;;;;;;;5094898;28;20043;-75
2021/08/03 05:27:06;;;;;;;29.90;11.38;;;;;;;;;;5094867;28;20415;-75
2021/08/03 05:29:31;;;;;;;33.75;10.73;;;;;;;;;;5094730;28;20012;-75
2021/08/03 05:31:57;;;;;;;28.90;9.20;;;;;;;;;;5094779;28;20506;-75
2021/08/03 05:34:22;;;;;;;27.20;10.10;;;;;;;;;;5094791;28;20024;-75
2021/08/03 05:36:47;;;;;;;30.83;9.00;;;;;;;;;;5094268;28;20028;-75
2021/08/03 05:39:12;;;;;;;43.72;9.57;;;;;;;;;;5094541;28;20036;-75
2021/08/03 05:41:38;;;;;;;48.58;11.30;;;;;;;;;;5094496;28;20028;-75
2021/08/03 05:44:03;;;;;;;259.88;32.97;;;;;;;;;;5094596;28;20460;-76
2021/08/03 05:46:28;;;;;;;78.35;15.50;;;;;;;;;;5094323;28;20107;-76
2021/08/03 05:48:53;;;;;;;91.53;17.25;;;;;;;;;;5094510;28;20024;-75
2021/08/03 05:51:19;;;;;;;143.35;23.02;;;;;;;;;;5094266;28;20444;-75
2021/08/03 05:53:44;;;;;;;355.30;36.08;;;;;;;;;;5094385;28;20036;-75
2021/08/03 05:56:10;;;;;;;200.27;26.58;;;;;;;;;;5094260;28;20020;-75
2021/08/03 05:58:35;;;;;;;22.02;6.40;;;;;;;;;;5094267;28;20047;-75
2021/08/03 06:01:01;;;;;;;7.75;4.82;;;;;;;;;;5094276;28;20063;-74
2021/08/03 06:03:26;;;;;;;9.07;4.25;;;;;;;;;;5093978;28;20112;-76
2021/08/03 06:05:51;;;;;;;9.15;4.20;;;;;;;;;;5094190;28;20034;-75
2021/08/03 06:08:22;;;;;;;7.38;3.35;;;;;;;;;;5094032;28;20055;-75
2021/08/03 06:10:50;;;;;;;10.10;2.90;;;;;;;;;;5093848;28;20480;-75
2021/08/03 06:13:16;;;;;;;4.63;2.33;;;;;;;;;;5093622;28;20468;-75
2021/08/03 06:15:42;;;;;;;4.80;2.65;;;;;;;;;;5093987;28;20076;-75
2021/08/03 06:18:27;;;;;;;8.25;2.75;;;;;;;;;;5093906;28;20048;-76
2021/08/03 06:20:52;;;;;;;4.82;2.78;;;;;;;;;;5093518;28;20503;-75
2021/08/03 06:23:18;;;;;;;5.95;2.47;;;;;;;;;;5092966;28;20036;-76
2021/08/03 06:25:44;;;;;;;8.60;3.35;;;;;;;;;;5093472;28;20364;-75
2021/08/03 06:28:09;;;;;;;4.78;2.65;;;;;;;;;;5093792;28;20020;-76
2021/08/03 06:30:36;;;;;;;4.38;2.22;;;;;;;;;;5093316;28;20427;-76
2021/08/03 06:33:02;;;;;;;4.18;2.38;;;;;;;;;;5093835;28;20035;-75
2021/08/03 06:35:27;;;;;;;3.33;2.10;;;;;;;;;;5093591;28;20020;-77
2021/08/03 06:37:53;;;;;;;6.72;2.33;;;;;;;;;;5093642;28;20115;-75
2021/08/03 06:40:18;;;;;;;7.03;2.30;;;;;;;;;;5093589;28;20020;-76
2021/08/03 06:42:48;;;;;;;4.32;2.25;;;;;;;;;;5093551;28;20039;-77
2021/08/03 06:45:18;;;;;;;7.63;2.28;;;;;;;;;;5093402;28;20024;-77
2021/08/03 06:47:43;;;;;;;2.97;2.13;;;;;;;;;;5093595;28;20019;-74
2021/08/03 06:50:09;;;;;;;3.95;2.20;;;;;;;;;;5093485;28;20396;-75
2021/08/03 06:52:35;;;;;;;6.35;3.85;;;;;;;;;;5093341;28;20036;-75
2021/08/03 06:55:05;;;;;;;6.13;2.40;;;;;;;;;;5093606;28;20016;-75
2021/08/03 06:57:33;;;;;;;3.97;2.22;;;;;;;;;;5093336;28;20035;-76
2021/08/03 07:00:01;;;;;;;4.85;2.70;;;;;;;;;;5093198;28;20028;-75
2021/08/03 07:02:30;;;;;;;5.72;2.60;;;;;;;;;;5092501;28;20027;-76
2021/08/03 07:04:55;;;;;;;4.93;2.42;;;;;;;;;;5092479;28;20036;-75
2021/08/03 07:07:21;;;;;;;6.93;3.40;;;;;;;;;;5092976;28;20032;-75
2021/08/03 07:09:48;;;;;;;5.65;2.83;;;;;;;;;;5093418;28;20024;-76
2021/08/03 07:12:13;;;;;;;4.88;3.13;;;;;;;;;;5093216;28;20629;-77
2021/08/03 07:14:39;;;;;;;8.90;4.60;;;;;;;;;;5091841;28;20024;-76
2021/08/03 07:17:06;;;;;;;10.25;5.80;;;;;;;;;;5093235;28;20012;-75
2021/08/03 07:19:32;;;;;;;3.67;2.22;;;;;;;;;;5093240;28;20036;-76
2021/08/03 07:21:58;;;;;;;6.00;4.22;;;;;;;;;;5092856;28;20076;-76
2021/08/03 07:24:24;;;;;;;9.38;5.00;;;;;;;;;;5093118;28;20067;-77
2021/08/03 07:26:50;;;;;;;7.03;4.65;;;;;;;;;;5093168;28;20031;-76
2021/08/03 07:29:15;;;;;;;9.30;5.53;;;;;;;;;;5093161;28;20057;-77
2021/08/03 07:31:43;;;;;;;8.15;5.70;;;;;;;;;;5093430;28;20028;-77
2021/08/03 07:34:09;;;;;;;6.53;5.30;;;;;;;;;;5093164;28;20032;-76
2021/08/03 07:36:34;;;;;;;7.95;5.80;;;;;;;;;;5095933;28;20107;-76
2021/08/03 07:39:04;;;;;;;7.13;4.72;;;;;;;;;;5096681;28;20042;-77
2021/08/03 07:41:29;;;;;;;8.68;4.75;;;;;;;;;;5096335;28;20032;-77
2021/08/03 07:43:55;;;;;;;8.15;4.63;;;;;;;;;;5096771;28;20043;-77
2021/08/03 07:46:20;;;;;;;10.60;4.90;;;;;;;;;;5097018;28;20028;-77
2021/08/03 07:48:50;;;;;;;6.28;3.75;;;;;;;;;;5096762;28;20123;-77
2021/08/03 07:51:18;;;;;;;5.70;4.05;;;;;;;;;;5096596;28;20027;-77
2021/08/03 07:53:44;;;;;;;7.20;5.43;;;;;;;;;;5096600;28;20028;-76
2021/08/03 07:56:10;;;;;;;7.15;4.68;;;;;;;;;;5096731;28;20024;-77
2021/08/03 07:58:36;;;;;;;7.00;4.78;;;;;;;;;;5096296;28;20024;-77
2021/08/03 08:01:02;;;;;;;7.80;4.60;;;;;;;;;;5091007;28;20019;-81
2021/08/03 08:03:27;;;;;;;6.30;5.28;;;;;;;;;;5095599;28;20036;-77
2021/08/03 08:05:53;;;;;;;6.80;4.68;;;;;;;;;;5075994;28;20388;-77
2021/08/03 08:08:18;;;;;;;7.73;5.17;;;;;;;;;;5091058;28;20019;-80
2021/08/03 08:10:43;;;;;;;7.88;5.75;;;;;;;;;;5091860;28;20745;-78
2021/08/03 08:13:08;;;;;;;10.32;5.80;;;;;;;;;;5092197;28;20057;-77
2021/08/03 08:15:34;;;;;;;7.70;5.80;;;;;;;;;;5091250;28;20024;-77
2021/08/03 08:17:59;;;;;;;8.93;5.20;;;;;;;;;;5092513;28;20272;-80
2021/08/03 08:20:24;;;;;;;8.63;5.35;;;;;;;;;;5091662;28;20056;-77
2021/08/03 08:22:50;;;;;;;9.10;5.43;;;;;;;;;;5091609;28;20177;-78
2021/08/03 08:25:15;;;;;;;9.48;6.45;;;;;;;;;;5089705;28;20326;-78
2021/08/03 08:27:41;;;;;;;9.90;6.22;;;;;;;;;;5089898;28;20032;-77
2021/08/03 08:30:07;;;;;;;7.95;6.32;;;;;;;;;;5089689;28;20060;-80
2021/08/03 08:32:32;;;;;;;9.55;6.03;;;;;;;;;;5089243;28;20036;-77
2021/08/03 08:34:58;;;;;;;7.78;5.32;;;;;;;;;;5088508;28;20499;-76
2021/08/03 08:37:23;;;;;;;6.78;4.97;;;;;;;;;;5089321;28;20023;-78
2021/08/03 08:39:48;;;;;;;6.88;5.40;;;;;;;;;;5088818;28;20027;-77
2021/08/03 08:42:16;;;;;;;7.85;6.07;;;;;;;;;;5090149;28;20035;-77
2021/08/03 08:44:46;;;;;;;7.28;5.57;;;;;;;;;;5089895;28;20028;-81
2021/08/03 08:47:11;;;;;;;9.60;6.60;;;;;;;;;;5088666;28;20475;-76
2021/08/03 08:49:37;;;;;;;7.70;5.72;;;;;;;;;;5089236;28;20028;-76
2021/08/03 08:52:02;;;;;;;11.65;6.75;;;;;;;;;;5088953;28;21590;-75
2021/08/03 08:54:27;;;;;;;18.85;7.00;;;;;;;;;;5090397;28;20383;-76
2021/08/03 08:56:53;;;;;;;8.07;5.93;;;;;;;;;;5088695;28;20028;-76
2021/08/03 08:59:18;;;;;;;9.32;6.35;;;;;;;;;;5089545;28;20027;-75
2021/08/03 09:01:43;;;;;;;7.40;6.13;;;;;;;;;;5090002;28;20036;-76
2021/08/03 09:04:09;;;;;;;10.57;6.85;;;;;;;;;;5090479;28;20042;-76
2021/08/03 09:06:34;;;;;;;15.27;7.97;;;;;;;;;;5077211;28;20497;-76
2021/08/03 09:09:11;;;;;;;11.13;7.63;;;;;;;;;;5090605;28;20027;-75
2021/08/03 09:11:42;;;;;;;9.52;7.10;;;;;;;;;;5092336;28;20035;-76
2021/08/03 09:14:08;;;;;;;11.00;7.47;;;;;;;;;;5111229;28;20167;-75
2021/08/03 09:16:43;;;;;;;13.10;7.50;;;;;;;;;;5110537;28;20020;-76
2021/08/03 09:19:26;;;;;;;11.35;8.18;;;;;;;;;;5094018;28;20032;-76
2021/08/03 09:22:08;;;;;;;12.95;8.00;;;;;;;;;;5089672;28;20056;-76
2021/08/03 09:24:35;;;;;;;9.85;7.78;;;;;;;;;;5089861;28;20047;-77
2021/08/03 09:27:00;;;;;;;10.57;7.68;;;;;;;;;;5089638;28;20471;-76
2021/08/03 09:29:25;;;;;;;11.70;8.15;;;;;;;;;;5089692;28;20020;-76
2021/08/03 09:31:52;;;;;;;9.32;7.53;;;;;;;;;;5089541;28;20043;-76
2021/08/03 09:34:18;;;;;;;12.88;8.45;;;;;;;;;;5089385;28;20043;-77
2021/08/03 09:36:46;;;;;;;10.40;7.80;;;;;;;;;;5089927;28;20372;-76
2021/08/03 09:39:30;;;;;;;10.93;8.02;;;;;;;;;;5088831;28;20234;-76
2021/08/03 09:41:55;;;;;;;13.20;10.20;;;;;;;;;;5086112;28;20030;-77
2021/08/03 09:44:20;;;;;;;9.35;8.23;;;;;;;;;;5090020;28;20032;-77
2021/08/03 09:46:47;;;;;;;14.15;8.75;;;;;;;;;;5089597;28;20112;-77
2021/08/03 09:49:13;;;;;;;13.00;9.23;;;;;;;;;;5089754;28;20046;-77
2021/08/03 09:51:38;;;;;;;11.30;9.27;;;;;;;;;;5089394;28;20027;-78
2021/08/03 09:54:04;;;;;;;11.85;9.13;;;;;;;;;;5090038;28;20044;-76
2021/08/03 09:56:29;;;;;;;11.98;8.40;;;;;;;;;;5089414;28;20016;-76
2021/08/03 09:58:56;;;;;;;12.50;9.90;;;;;;;;;;5089785;28;20032;-76
2021/08/03 10:01:25;;;;;;;11.90;9.90;;;;;;;;;;5089015;28;20272;-77
2021/08/03 10:03:51;;;;;;;12.80;9.82;;;;;;;;;;5090229;28;20068;-76
2021/08/03 10:06:18;;;;;;;13.25;9.35;;;;;;;;;;5089504;28;20055;-75
2021/08/03 10:08:43;;;;;;;15.68;9.77;;;;;;;;;;5088757;28;20093;-75
2021/08/03 10:11:09;;;;;;;13.85;9.40;;;;;;;;;;5088665;28;20028;-76
2021/08/03 10:13:34;;;;;;;12.85;10.20;;;;;;;;;;5089247;28;20049;-77
2021/08/03 10:15:59;;;;;;;13.18;8.80;;;;;;;;;;5089029;28;20034;-76
2021/08/03 10:18:24;;;;;;;11.73;9.03;;;;;;;;;;5089567;28;20388;-76
2021/08/03 10:20:50;;;;;;;13.52;9.93;;;;;;;;;;5088446;28;20284;-77
2021/08/03 10:23:17;;;;;;;9.93;8.68;;;;;;;;;;5088633;28;20061;-77
2021/08/03 10:25:43;;;;;;;11.00;8.60;;;;;;;;;;5089013;28;20066;-76
2021/08/03 10:28:22;;;;;;;10.18;8.95;;;;;;;;;;5087483;28;20042;-76
2021/08/03 10:30:48;;;;;;;11.90;9.55;;;;;;;;;;5087556;28;20039;-77
2021/08/03 10:33:36;;;;;;;13.50;8.82;;;;;;;;;;5087654;28;20510;-76
2021/08/03 10:36:02;;;;;;;10.88;8.68;;;;;;;;;;5080310;28;20130;-76
2021/08/03 10:38:32;;;;;;;10.35;8.18;;;;;;;;;;5086358;28;20103;-76
2021/08/03 10:41:00;;;;;;;11.57;9.07;;;;;;;;;;5088078;28;20813;-76
2021/08/03 10:43:35;;;;;;;12.93;9.15;;;;;;;;;;5087709;28;20056;-76
2021/08/03 10:46:04;;;;;;;10.52;7.65;;;;;;;;;;5088040;28;20084;-76
2021/08/03 10:48:38;;;;;;;9.63;7.88;;;;;;;;;;5087670;28;20111;-76
2021/08/03 10:51:12;;;;;;;10.23;8.13;;;;;;;;;;5088395;28;20032;-75
2021/08/03 10:53:56;;;;;;;11.45;8.90;;;;;;;;;;5087856;28;20028;-75
2021/08/03 10:56:21;;;;;;;12.80;8.50;;;;;;;;;;5087961;28;20032;-75
2021/08/03 10:58:47;;;;;;;12.50;8.52;;;;;;;;;;5087703;28;20035;-74
2021/08/03 11:01:32;;;;;;;15.27;11.65;;;;;;;;;;5088849;28;20062;-76
2021/08/03 11:03:57;;;;;;;11.52;9.20;;;;;;;;;;5087231;28;20043;-75
2021/08/03 11:06:22;;;;;;;14.13;8.88;;;;;;;;;;5087704;28;20028;-75
2021/08/03 11:08:48;;;;;;;11.97;8.13;;;;;;;;;;5088422;28;20027;-74
2021/08/03 11:11:22;;;;;;;13.88;9.20;;;;;;;;;;5090816;28;20267;-74
2021/08/03 11:13:51;;;;;;;10.80;8.50;;;;;;;;;;5092934;28;20028;-74
2021/08/03 11:16:20;;;;;;;12.43;9.40;;;;;;;;;;5091042;28;20070;-75
2021/08/03 11:18:46;;;;;;;13.43;8.85;;;;;;;;;;5091473;28;20028;-74
2021/08/03 11:21:15;;;;;;;12.02;8.77;;;;;;;;;;5091396;28;20079;-75
2021/08/03 11:24:03;;;;;;;12.65;7.10;;;;;;;;;;5091662;28;20055;-74
2021/08/03 11:27:04;;;;;;;11.07;6.90;;;;;;;;;;5085874;28;20044;-74
2021/08/03 11:29:37;;;;;;;7.65;5.78;;;;;;;;;;5049511;28;20064;-74
2021/08/03 11:32:03;;;;;;;11.07;6.70;;;;;;;;;;5086102;28;20377;-77
2021/08/03 11:34:33;;;;;;;9.52;7.20;;;;;;;;;;5092788;28;20028;-74
2021/08/03 11:37:08;;;;;;;9.40;7.05;;;;;;;;;;5092967;28;20032;-74
2021/08/03 11:39:43;;;;;;;8.38;5.68;;;;;;;;;;5093568;28;20086;-75
2021/08/03 11:42:09;;;;;;;8.35;6.00;;;;;;;;;;5092656;28;20031;-75
2021/08/03 11:44:34;;;;;;;7.05;5.50;;;;;;;;;;5093216;28;20044;-75
2021/08/03 11:47:03;;;;;;;8.75;5.68;;;;;;;;;;5092109;28;20028;-74
2021/08/03 11:49:36;;;;;;;6.75;5.15;;;;;;;;;;5092501;28;20031;-74
2021/08/03 11:52:09;;;;;;;9.30;5.57;;;;;;;;;;5091934;28;20053;-76
2021/08/03 11:54:34;;;;;;;9.32;6.00;;;;;;;;;;5091910;28;20088;-74
2021/08/03 11:56:59;;;;;;;7.28;4.75;;;;;;;;;;5092311;28;20020;-75
2021/08/03 11:59:31;;;;;;;7.15;4.47;;;;;;;;;;5092528;28;20024;-74
2021/08/03 12:01:56;;;;;;;6.85;4.75;;;;;;;;;;5092051;28;20031;-74
2021/08/03 12:04:22;;;;;;;9.43;4.65;;;;;;;;;;5091598;28;20024;-74
2021/08/03 12:06:48;;;;;;;7.70;3.70;;;;;;;;;;5092243;28;20522;-74
2021/08/03 12:09:14;;;;;;;6.43;3.35;;;;;;;;;;5092225;28;20441;-75
2021/08/03 12:11:39;;;;;;;7.53;3.85;;;;;;;;;;5091900;28;20123;-74
2021/08/03 12:14:27;;;;;;;4.40;2.90;;;;;;;;;;5091731;28;20039;-74
2021/08/03 12:16:54;;;;;;;3.83;2.33;;;;;;;;;;5091868;28;20038;-74
2021/08/03 12:19:26;;;;;;;4.82;2.58;;;;;;;;;;5092252;28;20074;-74
2021/08/03 12:21:51;;;;;;;4.72;3.15;;;;;;;;;;5090956;28;20059;-76
2021/08/03 12:24:17;;;;;;;4.85;2.58;;;;;;;;;;5091508;28;20032;-75
2021/08/03 12:26:44;;;;;;;4.55;2.28;;;;;;;;;;5090954;28;20419;-74
2021/08/03 12:29:09;;;;;;;4.55;3.30;;;;;;;;;;5092002;28;20036;-74
2021/08/03 12:31:35;;;;;;;6.15;3.40;;;;;;;;;;5090842;28;20026;-75
2021/08/03 12:34:11;;;;;;;8.73;3.00;;;;;;;;;;5092354;28;20024;-76
2021/08/03 12:36:40;;;;;;;5.35;2.90;;;;;;;;;;5089911;28;20028;-76
2021/08/03 12:39:19;;;;;;;3.90;2.33;;;;;;;;;;5091684;28;20028;-76
2021/08/03 12:41:59;;;;;;;4.50;2.45;;;;;;;;;;5091162;28;20031;-76
2021/08/03 12:44:27;;;;;;;3.67;2.50;;;;;;;;;;5091465;28;20051;-76
2021/08/03 12:46:53;;;;;;;3.95;2.25;;;;;;;;;;5090787;28;20473;-75
2021/08/03 12:49:30;;;;;;;8.90;2.80;;;;;;;;;;5091409;28;20031;-74
2021/08/03 12:52:04;;;;;;;4.25;2.53;;;;;;;;;;5091269;28;20031;-76
2021/08/03 12:54:30;;;;;;;3.88;2.38;;;;;;;;;;5091205;28;20066;-75
2021/08/03 12:56:56;;;;;;;5.75;2.10;;;;;;;;;;5091131;28;20048;-75
2021/08/03 12:59:37;;;;;;;3.40;1.92;;;;;;;;;;5091029;28;20531;-75
2021/08/03 13:02:03;;;;;;;3.90;2.38;;;;;;;;;;5090439;28;20028;-77
2021/08/03 13:04:28;;;;;;;4.18;2.30;;;;;;;;;;5090498;28;20055;-76
2021/08/03 13:06:54;;;;;;;3.97;2.20;;;;;;;;;;5090898;28;20028;-75
2021/08/03 13:09:19;;;;;;;3.42;2.20;;;;;;;;;;5091203;28;20024;-79
2021/08/03 13:11:45;;;;;;;3.83;2.10;;;;;;;;;;5091330;28;20032;-75
2021/08/03 13:14:10;;;;;;;4.63;2.10;;;;;;;;;;5090955;28;20107;-76
2021/08/03 13:16:35;;;;;;;4.38;2.92;;;;;;;;;;5089866;28;20028;-75
2021/08/03 13:19:00;;;;;;;4.70;2.42;;;;;;;;;;5090501;28;20032;-75
2021/08/03 13:21:26;;;;;;;5.90;2.58;;;;;;;;;;5090364;28;20051;-79
2021/08/03 13:23:51;;;;;;;4.50;2.10;;;;;;;;;;5091560;28;20506;-75
2021/08/03 13:26:16;;;;;;;3.75;2.10;;;;;;;;;;5090238;28;20028;-75
2021/08/03 13:28:42;;;;;;;4.50;2.30;;;;;;;;;;5090790;28;20556;-76
2021/08/03 13:31:07;;;;;;;6.03;2.10;;;;;;;;;;5090781;28;20073;-75
2021/08/03 13:33:32;;;;;;;2.92;2.00;;;;;;;;;;5090390;28;20028;-76
2021/08/03 13:35:57;;;;;;;3.13;2.15;;;;;;;;;;5090694;28;20016;-75
2021/08/03 13:38:23;;;;;;;4.65;1.52;;;;;;;;;;5089975;28;20032;-75
2021/08/03 13:40:48;;;;;;;3.92;1.88;;;;;;;;;;5086338;28;20063;-75
2021/08/03 13:43:13;;;;;;;3.33;1.50;;;;;;;;;;5090113;28;20043;-75
2021/08/03 13:45:39;;;;;;;3.85;1.83;;;;;;;;;;5089665;28;20024;-76
2021/08/03 13:48:06;;;;;;;3.55;2.63;;;;;;;;;;5089882;28;20023;-75
2021/08/03 13:50:31;;;;;;;3.33;1.77;;;;;;;;;;5088486;28;20020;-76
2021/08/03 13:52:56;;;;;;;3.17;2.00;;;;;;;;;;5090049;28;20032;-75
2021/08/03 13:55:21;;;;;;;3.53;1.80;;;;;;;;;;5089025;28;20028;-76
2021/08/03 13:57:47;;;;;;;3.50;2.28;;;;;;;;;;5089081;28;20020;-74
2021/08/03 14:00:12;;;;;;;2.22;1.40;;;;;;;;;;5089234;28;20111;-77
2021/08/03 14:02:38;;;;;;;3.03;1.60;;;;;;;;;;5088481;28;20416;-75
2021/08/03 14:05:03;;;;;;;4.45;1.45;;;;;;;;;;5089212;28;20028;-75
2021/08/03 14:07:28;;;;;;;2.03;1.45;;;;;;;;;;5087977;28;20055;-75
2021/08/03 14:09:54;;;;;;;4.72;1.30;;;;;;;;;;5086941;28;20035;-79
2021/08/03 14:12:19;;;;;;;2.10;1.48;;;;;;;;;;5083033;28;20031;-77
2021/08/03 14:14:44;;;;;;;2.85;1.75;;;;;;;;;;5087390;28;20024;-76
2021/08/03 14:17:10;;;;;;;5.40;2.00;;;;;;;;;;5087280;28;20028;-75
2021/08/03 14:19:35;;;;;;;3.40;1.80;;;;;;;;;;5087134;28;20020;-77
2021/08/03 14:22:00;;;;;;;2.80;1.90;;;;;;;;;;5086353;28;20438;-76
2021/08/03 14:24:25;;;;;;;4.40;1.80;;;;;;;;;;5088066;28;20054;-78
2021/08/03 14:26:51;;;;;;;3.60;1.70;;;;;;;;;;5086832;28;20031;-75
2021/08/03 14:29:16;;;;;;;6.20;2.40;;;;;;;;;;5087964;28;20089;-75
2021/08/03 14:31:41;;;;;;;3.95;2.25;;;;;;;;;;5086963;28;20032;-75